sensor_id;sensor_type;location;lat;lon;timestamp;P1;durP1;ratioP1;P2;durP2;ratioP2
81619;SDS011;71028;53.410;6.710;2024-02-23T00:01:51;3.70;;;0.70;;
81619;SDS011;71028;53.410;6.710;2024-02-23T00:04:17;3.95;;;0.85;;
81619;SDS011;71028;53.410;6.710;2024-02-23T00:06:44;4.20;;;0.80;;
81619;SDS011;71028;53.410;6.710;2024-02-23T00:09:10;4.97;;;0.77;;
81619;SDS011;71028;53.410;6.710;2024-02-23T00:11:39;2.38;;;0.57;;
81619;SDS011;71028;53.410;6.710;2024-02-23T00:14:09;5.35;;;0.77;;
81619;SDS011;71028;53.410;6.710;2024-02-23T00:16:44;4.20;;;0.70;;
81619;SDS011;71028;53.410;6.710;2024-02-23T00:19:10;2.65;;;0.75;;
81619;SDS011;71028;53.410;6.710;2024-02-23T00:21:36;4.22;;;0.98;;
81619;SDS011;71028;53.410;6.710;2024-02-23T00:24:03;3.88;;;1.30;;
81619;SDS011;71028;53.410;6.710;2024-02-23T00:26:30;5.10;;;0.77;;
81619;SDS011;71028;53.410;6.710;2024-02-23T00:28:56;4.40;;;0.73;;
81619;SDS011;71028;53.410;6.710;2024-02-23T00:31:22;2.10;;;0.70;;
81619;SDS011;71028;53.410;6.710;2024-02-23T00:33:48;2.67;;;0.80;;
81619;SDS011;71028;53.410;6.710;2024-02-23T00:36:14;2.45;;;0.60;;
81619;SDS011;71028;53.410;6.710;2024-02-23T00:38:40;5.97;;;0.90;;
81619;SDS011;71028;53.410;6.710;2024-02-23T00:41:06;4.65;;;0.70;;
81619;SDS011;71028;53.410;6.710;2024-02-23T00:43:38;3.30;;;0.60;;
81619;SDS011;71028;53.410;6.710;2024-02-23T00:46:05;4.95;;;0.73;;
81619;SDS011;71028;53.410;6.710;2024-02-23T00:48:31;3.33;;;1.00;;
81619;SDS011;71028;53.410;6.710;2024-02-23T00:50:57;7.70;;;0.90;;
81619;SDS011;71028;53.410;6.710;2024-02-23T00:53:23;3.42;;;0.80;;
81619;SDS011;71028;53.410;6.710;2024-02-23T00:55:49;3.33;;;1.08;;
81619;SDS011;71028;53.410;6.710;2024-02-23T00:58:15;5.90;;;1.30;;
81619;SDS011;71028;53.410;6.710;2024-02-23T01:00:41;3.42;;;0.80;;
81619;SDS011;71028;53.410;6.710;2024-02-23T01:03:07;4.45;;;0.93;;
81619;SDS011;71028;53.410;6.710;2024-02-23T01:05:33;7.65;;;1.95;;
81619;SDS011;71028;53.410;6.710;2024-02-23T01:07:59;4.40;;;0.85;;
81619;SDS011;71028;53.410;6.710;2024-02-23T01:10:25;3.40;;;0.98;;
81619;SDS011;71028;53.410;6.710;2024-02-23T01:12:52;4.60;;;1.08;;
81619;SDS011;71028;53.410;6.710;2024-02-23T01:15:18;3.63;;;0.90;;
81619;SDS011;71028;53.410;6.710;2024-02-23T01:17:44;2.75;;;0.77;;
81619;SDS011;71028;53.410;6.710;2024-02-23T01:20:10;5.55;;;1.08;;
81619;SDS011;71028;53.410;6.710;2024-02-23T01:22:36;4.47;;;0.77;;
81619;SDS011;71028;53.410;6.710;2024-02-23T01:25:03;2.38;;;0.60;;
81619;SDS011;71028;53.410;6.710;2024-02-23T01:27:29;3.08;;;0.80;;
81619;SDS011;71028;53.410;6.710;2024-02-23T01:29:55;1.77;;;0.70;;
81619;SDS011;71028;53.410;6.710;2024-02-23T01:32:21;6.50;;;1.00;;
81619;SDS011;71028;53.410;6.710;2024-02-23T01:34:47;3.42;;;0.70;;
81619;SDS011;71028;53.410;6.710;2024-02-23T01:37:13;7.72;;;1.23;;
81619;SDS011;71028;53.410;6.710;2024-02-23T01:39:39;1.90;;;0.77;;
81619;SDS011;71028;53.410;6.710;2024-02-23T01:42:05;4.13;;;0.93;;
81619;SDS011;71028;53.410;6.710;2024-02-23T01:44:31;6.28;;;1.08;;
81619;SDS011;71028;53.410;6.710;2024-02-23T01:46:57;5.13;;;1.08;;
81619;SDS011;71028;53.410;6.710;2024-02-23T01:49:24;3.08;;;0.80;;
81619;SDS011;71028;53.410;6.710;2024-02-23T01:51:55;4.95;;;1.13;;
81619;SDS011;71028;53.410;6.710;2024-02-23T01:54:21;6.07;;;1.30;;
81619;SDS011;71028;53.410;6.710;2024-02-23T01:56:47;5.18;;;1.50;;
81619;SDS011;71028;53.410;6.710;2024-02-23T01:59:13;6.03;;;1.20;;
81619;SDS011;71028;53.410;6.710;2024-02-23T02:01:39;7.05;;;1.95;;
81619;SDS011;71028;53.410;6.710;2024-02-23T02:04:08;4.93;;;1.63;;
81619;SDS011;71028;53.410;6.710;2024-02-23T02:06:34;9.52;;;1.50;;
81619;SDS011;71028;53.410;6.710;2024-02-23T02:09:01;4.15;;;1.60;;
81619;SDS011;71028;53.410;6.710;2024-02-23T02:11:27;5.03;;;1.40;;
81619;SDS011;71028;53.410;6.710;2024-02-23T02:13:53;6.53;;;1.15;;
81619;SDS011;71028;53.410;6.710;2024-02-23T02:16:19;5.88;;;1.67;;
81619;SDS011;71028;53.410;6.710;2024-02-23T02:18:45;2.70;;;1.20;;
81619;SDS011;71028;53.410;6.710;2024-02-23T02:21:11;8.25;;;1.40;;
81619;SDS011;71028;53.410;6.710;2024-02-23T02:23:37;7.47;;;2.00;;
81619;SDS011;71028;53.410;6.710;2024-02-23T02:26:03;5.93;;;1.80;;
81619;SDS011;71028;53.410;6.710;2024-02-23T02:28:29;4.68;;;1.38;;
81619;SDS011;71028;53.410;6.710;2024-02-23T02:30:56;4.95;;;1.55;;
81619;SDS011;71028;53.410;6.710;2024-02-23T02:33:22;4.72;;;1.20;;
81619;SDS011;71028;53.410;6.710;2024-02-23T02:35:48;8.07;;;1.55;;
81619;SDS011;71028;53.410;6.710;2024-02-23T02:38:15;6.72;;;1.10;;
81619;SDS011;71028;53.410;6.710;2024-02-23T02:40:41;4.05;;;1.50;;
81619;SDS011;71028;53.410;6.710;2024-02-23T02:43:07;5.35;;;1.13;;
81619;SDS011;71028;53.410;6.710;2024-02-23T02:45:33;3.92;;;1.15;;
81619;SDS011;71028;53.410;6.710;2024-02-23T02:48:00;6.88;;;1.63;;
81619;SDS011;71028;53.410;6.710;2024-02-23T02:50:28;5.40;;;1.95;;
81619;SDS011;71028;53.410;6.710;2024-02-23T02:52:54;5.88;;;1.23;;
81619;SDS011;71028;53.410;6.710;2024-02-23T02:55:21;4.43;;;1.05;;
81619;SDS011;71028;53.410;6.710;2024-02-23T02:57:46;9.43;;;1.23;;
81619;SDS011;71028;53.410;6.710;2024-02-23T03:00:13;7.45;;;2.10;;
81619;SDS011;71028;53.410;6.710;2024-02-23T03:02:39;3.05;;;1.35;;
81619;SDS011;71028;53.410;6.710;2024-02-23T03:05:05;5.10;;;1.40;;
81619;SDS011;71028;53.410;6.710;2024-02-23T03:07:31;8.30;;;2.10;;
81619;SDS011;71028;53.410;6.710;2024-02-23T03:09:57;7.15;;;1.52;;
81619;SDS011;71028;53.410;6.710;2024-02-23T03:12:23;4.70;;;1.50;;
81619;SDS011;71028;53.410;6.710;2024-02-23T03:14:49;4.65;;;1.33;;
81619;SDS011;71028;53.410;6.710;2024-02-23T03:17:15;5.25;;;1.60;;
81619;SDS011;71028;53.410;6.710;2024-02-23T03:19:41;7.28;;;1.50;;
81619;SDS011;71028;53.410;6.710;2024-02-23T03:22:07;5.57;;;1.50;;
81619;SDS011;71028;53.410;6.710;2024-02-23T03:24:33;5.40;;;1.40;;
81619;SDS011;71028;53.410;6.710;2024-02-23T03:26:59;5.75;;;2.22;;
81619;SDS011;71028;53.410;6.710;2024-02-23T03:29:25;2.63;;;1.15;;
81619;SDS011;71028;53.410;6.710;2024-02-23T03:31:54;3.97;;;1.30;;
81619;SDS011;71028;53.410;6.710;2024-02-23T03:34:20;4.22;;;1.40;;
81619;SDS011;71028;53.410;6.710;2024-02-23T03:36:46;2.70;;;1.38;;
81619;SDS011;71028;53.410;6.710;2024-02-23T03:39:12;5.32;;;1.83;;
81619;SDS011;71028;53.410;6.710;2024-02-23T03:41:38;3.95;;;1.17;;
81619;SDS011;71028;53.410;6.710;2024-02-23T03:44:04;9.77;;;1.60;;
81619;SDS011;71028;53.410;6.710;2024-02-23T03:46:30;1.85;;;0.90;;
81619;SDS011;71028;53.410;6.710;2024-02-23T03:48:56;5.10;;;1.50;;
81619;SDS011;71028;53.410;6.710;2024-02-23T03:51:23;3.95;;;1.48;;
81619;SDS011;71028;53.410;6.710;2024-02-23T03:53:49;5.72;;;1.20;;
81619;SDS011;71028;53.410;6.710;2024-02-23T03:56:15;2.80;;;1.55;;
81619;SDS011;71028;53.410;6.710;2024-02-23T03:58:41;8.18;;;1.40;;
81619;SDS011;71028;53.410;6.710;2024-02-23T04:01:07;4.38;;;1.25;;
81619;SDS011;71028;53.410;6.710;2024-02-23T04:03:34;6.78;;;1.60;;
81619;SDS011;71028;53.410;6.710;2024-02-23T04:06:00;4.93;;;1.38;;
81619;SDS011;71028;53.410;6.710;2024-02-23T04:08:26;4.30;;;1.17;;
81619;SDS011;71028;53.410;6.710;2024-02-23T04:10:52;7.60;;;1.80;;
81619;SDS011;71028;53.410;6.710;2024-02-23T04:13:19;11.15;;;1.70;;
81619;SDS011;71028;53.410;6.710;2024-02-23T04:15:46;7.13;;;1.42;;
81619;SDS011;71028;53.410;6.710;2024-02-23T04:18:12;8.32;;;1.33;;
81619;SDS011;71028;53.410;6.710;2024-02-23T04:20:38;3.95;;;1.20;;
81619;SDS011;71028;53.410;6.710;2024-02-23T04:23:04;5.30;;;1.30;;
81619;SDS011;71028;53.410;6.710;2024-02-23T04:25:30;2.70;;;1.02;;
81619;SDS011;71028;53.410;6.710;2024-02-23T04:27:56;6.95;;;1.30;;
81619;SDS011;71028;53.410;6.710;2024-02-23T04:30:22;3.67;;;1.08;;
81619;SDS011;71028;53.410;6.710;2024-02-23T04:32:48;2.75;;;0.70;;
81619;SDS011;71028;53.410;6.710;2024-02-23T04:35:14;7.10;;;1.00;;
81619;SDS011;71028;53.410;6.710;2024-02-23T04:37:43;1.63;;;0.70;;
81619;SDS011;71028;53.410;6.710;2024-02-23T04:40:10;2.85;;;0.75;;
81619;SDS011;71028;53.410;6.710;2024-02-23T04:42:36;2.85;;;0.63;;
81619;SDS011;71028;53.410;6.710;2024-02-23T04:45:03;5.18;;;1.13;;
81619;SDS011;71028;53.410;6.710;2024-02-23T04:47:30;4.80;;;1.38;;
81619;SDS011;71028;53.410;6.710;2024-02-23T04:49:56;4.40;;;0.90;;
81619;SDS011;71028;53.410;6.710;2024-02-23T04:52:22;3.35;;;0.90;;
81619;SDS011;71028;53.410;6.710;2024-02-23T04:54:48;3.85;;;0.93;;
81619;SDS011;71028;53.410;6.710;2024-02-23T04:57:14;4.32;;;1.45;;
81619;SDS011;71028;53.410;6.710;2024-02-23T04:59:40;3.70;;;1.17;;
81619;SDS011;71028;53.410;6.710;2024-02-23T05:02:06;8.35;;;1.70;;
81619;SDS011;71028;53.410;6.710;2024-02-23T05:04:32;5.35;;;1.02;;
81619;SDS011;71028;53.410;6.710;2024-02-23T05:06:58;6.68;;;1.42;;
81619;SDS011;71028;53.410;6.710;2024-02-23T05:09:24;3.45;;;1.15;;
81619;SDS011;71028;53.410;6.710;2024-02-23T05:11:50;9.88;;;1.48;;
81619;SDS011;71028;53.410;6.710;2024-02-23T05:14:16;3.47;;;1.00;;
81619;SDS011;71028;53.410;6.710;2024-02-23T05:16:42;5.20;;;1.15;;
81619;SDS011;71028;53.410;6.710;2024-02-23T05:19:08;4.85;;;1.40;;
81619;SDS011;71028;53.410;6.710;2024-02-23T05:21:34;4.07;;;0.98;;
81619;SDS011;71028;53.410;6.710;2024-02-23T05:24:00;5.32;;;1.08;;
81619;SDS011;71028;53.410;6.710;2024-02-23T05:26:26;5.47;;;1.10;;
81619;SDS011;71028;53.410;6.710;2024-02-23T05:28:52;4.78;;;1.08;;
81619;SDS011;71028;53.410;6.710;2024-02-23T05:31:18;3.58;;;1.23;;
81619;SDS011;71028;53.410;6.710;2024-02-23T05:33:44;3.58;;;1.30;;
81619;SDS011;71028;53.410;6.710;2024-02-23T05:36:10;1.13;;;0.60;;
81619;SDS011;71028;53.410;6.710;2024-02-23T05:38:36;6.65;;;1.15;;
81619;SDS011;71028;53.410;6.710;2024-02-23T05:41:03;6.22;;;1.60;;
81619;SDS011;71028;53.410;6.710;2024-02-23T05:43:30;4.43;;;1.38;;
81619;SDS011;71028;53.410;6.710;2024-02-23T05:45:56;2.50;;;1.00;;
81619;SDS011;71028;53.410;6.710;2024-02-23T05:48:23;3.95;;;1.27;;
81619;SDS011;71028;53.410;6.710;2024-02-23T05:50:49;3.65;;;0.90;;
81619;SDS011;71028;53.410;6.710;2024-02-23T05:53:15;3.90;;;1.70;;
81619;SDS011;71028;53.410;6.710;2024-02-23T05:55:41;2.70;;;1.00;;
81619;SDS011;71028;53.410;6.710;2024-02-23T05:58:07;2.40;;;0.70;;
81619;SDS011;71028;53.410;6.710;2024-02-23T06:00:34;2.63;;;1.05;;
81619;SDS011;71028;53.410;6.710;2024-02-23T06:03:00;4.28;;;1.10;;
81619;SDS011;71028;53.410;6.710;2024-02-23T06:05:26;7.82;;;2.25;;
81619;SDS011;71028;53.410;6.710;2024-02-23T06:07:52;5.35;;;1.70;;
81619;SDS011;71028;53.410;6.710;2024-02-23T06:10:18;2.88;;;0.98;;
81619;SDS011;71028;53.410;6.710;2024-02-23T06:12:44;2.75;;;1.00;;
81619;SDS011;71028;53.410;6.710;2024-02-23T06:15:10;6.13;;;1.08;;
81619;SDS011;71028;53.410;6.710;2024-02-23T06:17:37;4.68;;;0.93;;
81619;SDS011;71028;53.410;6.710;2024-02-23T06:20:05;4.10;;;1.35;;
81619;SDS011;71028;53.410;6.710;2024-02-23T06:22:32;3.95;;;1.02;;
81619;SDS011;71028;53.410;6.710;2024-02-23T06:24:59;3.28;;;0.90;;
81619;SDS011;71028;53.410;6.710;2024-02-23T06:27:25;3.40;;;0.98;;
81619;SDS011;71028;53.410;6.710;2024-02-23T06:29:52;3.13;;;1.23;;
81619;SDS011;71028;53.410;6.710;2024-02-23T06:32:18;3.78;;;1.95;;
81619;SDS011;71028;53.410;6.710;2024-02-23T06:34:44;3.42;;;1.20;;
81619;SDS011;71028;53.410;6.710;2024-02-23T06:37:11;6.20;;;1.40;;
81619;SDS011;71028;53.410;6.710;2024-02-23T06:39:38;4.85;;;1.90;;
81619;SDS011;71028;53.410;6.710;2024-02-23T06:42:04;4.45;;;2.33;;
81619;SDS011;71028;53.410;6.710;2024-02-23T06:44:30;5.68;;;2.35;;
81619;SDS011;71028;53.410;6.710;2024-02-23T06:46:56;5.85;;;2.80;;
81619;SDS011;71028;53.410;6.710;2024-02-23T06:49:22;7.30;;;2.65;;
81619;SDS011;71028;53.410;6.710;2024-02-23T06:51:48;5.82;;;2.88;;
81619;SDS011;71028;53.410;6.710;2024-02-23T06:54:14;5.80;;;2.53;;
81619;SDS011;71028;53.410;6.710;2024-02-23T06:56:41;4.97;;;2.50;;
81619;SDS011;71028;53.410;6.710;2024-02-23T06:59:07;8.15;;;2.78;;
81619;SDS011;71028;53.410;6.710;2024-02-23T07:01:33;8.13;;;2.80;;
81619;SDS011;71028;53.410;6.710;2024-02-23T07:04:00;8.00;;;2.35;;
81619;SDS011;71028;53.410;6.710;2024-02-23T07:06:26;9.23;;;2.75;;
81619;SDS011;71028;53.410;6.710;2024-02-23T07:08:56;5.88;;;2.83;;
81619;SDS011;71028;53.410;6.710;2024-02-23T07:11:22;5.20;;;2.72;;
81619;SDS011;71028;53.410;6.710;2024-02-23T07:13:48;6.90;;;2.72;;
81619;SDS011;71028;53.410;6.710;2024-02-23T07:16:14;8.60;;;3.00;;
81619;SDS011;71028;53.410;6.710;2024-02-23T07:18:40;10.68;;;3.03;;
81619;SDS011;71028;53.410;6.710;2024-02-23T07:21:07;6.22;;;2.97;;
81619;SDS011;71028;53.410;6.710;2024-02-23T07:23:33;9.18;;;2.88;;
81619;SDS011;71028;53.410;6.710;2024-02-23T07:25:59;14.40;;;4.35;;
81619;SDS011;71028;53.410;6.710;2024-02-23T07:28:25;9.60;;;3.70;;
81619;SDS011;71028;53.410;6.710;2024-02-23T07:30:51;6.25;;;2.88;;
81619;SDS011;71028;53.410;6.710;2024-02-23T07:33:17;8.93;;;3.47;;
81619;SDS011;71028;53.410;6.710;2024-02-23T07:35:43;6.55;;;3.03;;
81619;SDS011;71028;53.410;6.710;2024-02-23T07:38:09;4.85;;;2.45;;
81619;SDS011;71028;53.410;6.710;2024-02-23T07:40:36;10.30;;;2.80;;
81619;SDS011;71028;53.410;6.710;2024-02-23T07:43:02;9.57;;;2.95;;
81619;SDS011;71028;53.410;6.710;2024-02-23T07:45:28;8.02;;;2.90;;
81619;SDS011;71028;53.410;6.710;2024-02-23T07:47:54;9.43;;;3.33;;
81619;SDS011;71028;53.410;6.710;2024-02-23T07:50:20;12.52;;;4.28;;
81619;SDS011;71028;53.410;6.710;2024-02-23T07:52:46;8.05;;;4.50;;
81619;SDS011;71028;53.410;6.710;2024-02-23T07:55:12;9.45;;;3.47;;
81619;SDS011;71028;53.410;6.710;2024-02-23T07:57:38;7.93;;;3.35;;
81619;SDS011;71028;53.410;6.710;2024-02-23T08:00:05;8.90;;;3.25;;
81619;SDS011;71028;53.410;6.710;2024-02-23T08:02:32;8.57;;;3.15;;
81619;SDS011;71028;53.410;6.710;2024-02-23T08:04:58;10.73;;;3.55;;
81619;SDS011;71028;53.410;6.710;2024-02-23T08:07:24;5.00;;;2.05;;
81619;SDS011;71028;53.410;6.710;2024-02-23T08:09:50;5.35;;;2.47;;
81619;SDS011;71028;53.410;6.710;2024-02-23T08:12:16;4.75;;;2.47;;
81619;SDS011;71028;53.410;6.710;2024-02-23T08:14:42;6.05;;;3.00;;
81619;SDS011;71028;53.410;6.710;2024-02-23T08:17:10;6.68;;;3.08;;
81619;SDS011;71028;53.410;6.710;2024-02-23T08:19:36;7.82;;;2.53;;
81619;SDS011;71028;53.410;6.710;2024-02-23T08:22:02;6.78;;;2.88;;
81619;SDS011;71028;53.410;6.710;2024-02-23T08:24:28;7.15;;;2.63;;
81619;SDS011;71028;53.410;6.710;2024-02-23T08:26:54;5.95;;;2.88;;
81619;SDS011;71028;53.410;6.710;2024-02-23T08:29:20;5.80;;;2.58;;
81619;SDS011;71028;53.410;6.710;2024-02-23T08:31:46;10.10;;;2.97;;
81619;SDS011;71028;53.410;6.710;2024-02-23T08:34:12;5.65;;;2.78;;
81619;SDS011;71028;53.410;6.710;2024-02-23T08:36:38;6.38;;;2.83;;
81619;SDS011;71028;53.410;6.710;2024-02-23T08:39:04;6.25;;;2.55;;
81619;SDS011;71028;53.410;6.710;2024-02-23T08:41:30;5.20;;;2.35;;
81619;SDS011;71028;53.410;6.710;2024-02-23T08:43:56;7.65;;;2.88;;
81619;SDS011;71028;53.410;6.710;2024-02-23T08:46:22;4.90;;;2.30;;
81619;SDS011;71028;53.410;6.710;2024-02-23T08:48:48;6.25;;;2.60;;
81619;SDS011;71028;53.410;6.710;2024-02-23T08:51:14;7.40;;;2.40;;
81619;SDS011;71028;53.410;6.710;2024-02-23T08:53:41;3.80;;;2.45;;
81619;SDS011;71028;53.410;6.710;2024-02-23T08:56:07;5.03;;;2.42;;
81619;SDS011;71028;53.410;6.710;2024-02-23T08:58:33;9.90;;;3.13;;
81619;SDS011;71028;53.410;6.710;2024-02-23T09:00:59;3.75;;;2.38;;
81619;SDS011;71028;53.410;6.710;2024-02-23T09:03:25;7.40;;;2.60;;
81619;SDS011;71028;53.410;6.710;2024-02-23T09:05:51;3.08;;;1.77;;
81619;SDS011;71028;53.410;6.710;2024-02-23T09:08:17;5.85;;;2.00;;
81619;SDS011;71028;53.410;6.710;2024-02-23T09:10:43;3.92;;;1.92;;
81619;SDS011;71028;53.410;6.710;2024-02-23T09:13:10;3.17;;;2.08;;
81619;SDS011;71028;53.410;6.710;2024-02-23T09:15:36;3.65;;;1.98;;
81619;SDS011;71028;53.410;6.710;2024-02-23T09:18:02;3.65;;;1.98;;
81619;SDS011;71028;53.410;6.710;2024-02-23T09:20:28;3.47;;;1.83;;
81619;SDS011;71028;53.410;6.710;2024-02-23T09:22:54;6.20;;;2.22;;
81619;SDS011;71028;53.410;6.710;2024-02-23T09:25:20;4.75;;;1.35;;
81619;SDS011;71028;53.410;6.710;2024-02-23T09:27:46;2.97;;;1.40;;
81619;SDS011;71028;53.410;6.710;2024-02-23T09:30:13;6.03;;;1.70;;
81619;SDS011;71028;53.410;6.710;2024-02-23T09:32:39;4.72;;;1.67;;
81619;SDS011;71028;53.410;6.710;2024-02-23T09:35:05;2.38;;;1.30;;
81619;SDS011;71028;53.410;6.710;2024-02-23T09:37:32;2.22;;;1.50;;
81619;SDS011;71028;53.410;6.710;2024-02-23T09:39:58;4.65;;;1.45;;
81619;SDS011;71028;53.410;6.710;2024-02-23T09:42:24;2.50;;;1.33;;
81619;SDS011;71028;53.410;6.710;2024-02-23T09:44:53;2.03;;;1.33;;
81619;SDS011;71028;53.410;6.710;2024-02-23T09:47:24;4.20;;;1.55;;
81619;SDS011;71028;53.410;6.710;2024-02-23T09:49:50;2.60;;;1.20;;
81619;SDS011;71028;53.410;6.710;2024-02-23T09:52:17;3.30;;;1.70;;
81619;SDS011;71028;53.410;6.710;2024-02-23T09:54:44;2.55;;;1.40;;
81619;SDS011;71028;53.410;6.710;2024-02-23T09:57:10;3.47;;;1.45;;
81619;SDS011;71028;53.410;6.710;2024-02-23T09:59:36;3.25;;;1.35;;
81619;SDS011;71028;53.410;6.710;2024-02-23T10:02:09;4.35;;;1.55;;
81619;SDS011;71028;53.410;6.710;2024-02-23T10:04:35;1.98;;;1.17;;
81619;SDS011;71028;53.410;6.710;2024-02-23T10:07:01;4.03;;;1.80;;
81619;SDS011;71028;53.410;6.710;2024-02-23T10:09:29;5.07;;;1.95;;
81619;SDS011;71028;53.410;6.710;2024-02-23T10:11:55;4.07;;;1.88;;
81619;SDS011;71028;53.410;6.710;2024-02-23T10:14:22;3.55;;;1.70;;
81619;SDS011;71028;53.410;6.710;2024-02-23T10:16:48;6.38;;;1.27;;
81619;SDS011;71028;53.410;6.710;2024-02-23T10:19:18;4.15;;;1.30;;
81619;SDS011;71028;53.410;6.710;2024-02-23T10:21:45;2.65;;;1.17;;
81619;SDS011;71028;53.410;6.710;2024-02-23T10:24:11;7.97;;;1.50;;
81619;SDS011;71028;53.410;6.710;2024-02-23T10:26:37;3.70;;;1.30;;
81619;SDS011;71028;53.410;6.710;2024-02-23T10:29:03;4.93;;;1.15;;
81619;SDS011;71028;53.410;6.710;2024-02-23T10:31:34;2.17;;;0.93;;
81619;SDS011;71028;53.410;6.710;2024-02-23T10:34:08;2.25;;;0.80;;
81619;SDS011;71028;53.410;6.710;2024-02-23T10:36:43;4.40;;;1.30;;
81619;SDS011;71028;53.410;6.710;2024-02-23T10:39:10;3.08;;;1.60;;
81619;SDS011;71028;53.410;6.710;2024-02-23T10:41:37;2.05;;;1.08;;
81619;SDS011;71028;53.410;6.710;2024-02-23T10:44:05;2.05;;;1.00;;
81619;SDS011;71028;53.410;6.710;2024-02-23T10:46:33;4.18;;;0.98;;
81619;SDS011;71028;53.410;6.710;2024-02-23T10:48:59;3.17;;;0.85;;
81619;SDS011;71028;53.410;6.710;2024-02-23T10:51:25;4.43;;;1.35;;
81619;SDS011;71028;53.410;6.710;2024-02-23T10:53:52;4.22;;;0.80;;
81619;SDS011;71028;53.410;6.710;2024-02-23T10:56:18;6.35;;;1.85;;
81619;SDS011;71028;53.410;6.710;2024-02-23T10:58:47;3.40;;;1.00;;
81619;SDS011;71028;53.410;6.710;2024-02-23T11:01:13;4.38;;;1.67;;
81619;SDS011;71028;53.410;6.710;2024-02-23T11:03:41;2.90;;;0.80;;
81619;SDS011;71028;53.410;6.710;2024-02-23T11:06:08;5.13;;;1.23;;
81619;SDS011;71028;53.410;6.710;2024-02-23T11:08:34;1.88;;;0.68;;
81619;SDS011;71028;53.410;6.710;2024-02-23T11:11:08;1.60;;;0.90;;
81619;SDS011;71028;53.410;6.710;2024-02-23T11:13:34;2.88;;;1.10;;
81619;SDS011;71028;53.410;6.710;2024-02-23T11:16:10;3.20;;;0.90;;
81619;SDS011;71028;53.410;6.710;2024-02-23T11:18:37;3.85;;;1.50;;
81619;SDS011;71028;53.410;6.710;2024-02-23T11:21:05;5.53;;;1.45;;
81619;SDS011;71028;53.410;6.710;2024-02-23T11:23:41;3.45;;;0.70;;
81619;SDS011;71028;53.410;6.710;2024-02-23T11:26:10;2.72;;;0.90;;
81619;SDS011;71028;53.410;6.710;2024-02-23T11:28:49;5.25;;;1.00;;
81619;SDS011;71028;53.410;6.710;2024-02-23T11:31:24;3.28;;;1.00;;
81619;SDS011;71028;53.410;6.710;2024-02-23T11:33:52;4.00;;;1.10;;
81619;SDS011;71028;53.410;6.710;2024-02-23T11:36:31;2.08;;;1.05;;
81619;SDS011;71028;53.410;6.710;2024-02-23T11:38:58;3.20;;;0.95;;
81619;SDS011;71028;53.410;6.710;2024-02-23T11:41:25;5.93;;;0.90;;
81619;SDS011;71028;53.410;6.710;2024-02-23T11:43:52;3.25;;;1.08;;
81619;SDS011;71028;53.410;6.710;2024-02-23T11:46:18;2.42;;;1.05;;
81619;SDS011;71028;53.410;6.710;2024-02-23T11:48:44;1.65;;;0.90;;
81619;SDS011;71028;53.410;6.710;2024-02-23T11:51:14;3.10;;;0.85;;
81619;SDS011;71028;53.410;6.710;2024-02-23T11:53:41;3.55;;;0.80;;
81619;SDS011;71028;53.410;6.710;2024-02-23T11:56:07;2.65;;;0.88;;
81619;SDS011;71028;53.410;6.710;2024-02-23T11:58:34;1.98;;;0.85;;
81619;SDS011;71028;53.410;6.710;2024-02-23T12:01:03;6.18;;;0.98;;
81619;SDS011;71028;53.410;6.710;2024-02-23T12:03:29;3.05;;;1.00;;
81619;SDS011;71028;53.410;6.710;2024-02-23T12:05:56;2.65;;;1.10;;
81619;SDS011;71028;53.410;6.710;2024-02-23T12:08:25;2.13;;;0.77;;
81619;SDS011;71028;53.410;6.710;2024-02-23T12:10:53;2.22;;;1.00;;
81619;SDS011;71028;53.410;6.710;2024-02-23T12:13:19;2.65;;;1.10;;
81619;SDS011;71028;53.410;6.710;2024-02-23T12:15:46;3.25;;;0.80;;
81619;SDS011;71028;53.410;6.710;2024-02-23T12:18:12;2.25;;;0.80;;
81619;SDS011;71028;53.410;6.710;2024-02-23T12:20:39;3.67;;;0.90;;
81619;SDS011;71028;53.410;6.710;2024-02-23T12:23:05;1.40;;;0.80;;
81619;SDS011;71028;53.410;6.710;2024-02-23T12:25:35;3.72;;;1.13;;
81619;SDS011;71028;53.410;6.710;2024-02-23T12:28:01;3.28;;;1.10;;
81619;SDS011;71028;53.410;6.710;2024-02-23T12:30:28;4.88;;;1.35;;
81619;SDS011;71028;53.410;6.710;2024-02-23T12:33:30;2.10;;;1.13;;
81619;SDS011;71028;53.410;6.710;2024-02-23T12:35:48;1.85;;;1.00;;
81619;SDS011;71028;53.410;6.710;2024-02-23T12:38:14;1.95;;;1.00;;
81619;SDS011;71028;53.410;6.710;2024-02-23T12:40:40;2.15;;;0.82;;
81619;SDS011;71028;53.410;6.710;2024-02-23T12:43:07;2.90;;;1.10;;
81619;SDS011;71028;53.410;6.710;2024-02-23T12:45:33;2.45;;;0.98;;
81619;SDS011;71028;53.410;6.710;2024-02-23T12:47:59;4.38;;;1.15;;
81619;SDS011;71028;53.410;6.710;2024-02-23T12:50:25;2.42;;;1.02;;
81619;SDS011;71028;53.410;6.710;2024-02-23T12:52:51;3.03;;;1.00;;
81619;SDS011;71028;53.410;6.710;2024-02-23T12:55:17;3.83;;;1.17;;
81619;SDS011;71028;53.410;6.710;2024-02-23T12:57:43;2.28;;;0.93;;
81619;SDS011;71028;53.410;6.710;2024-02-23T13:00:09;5.00;;;1.17;;
81619;SDS011;71028;53.410;6.710;2024-02-23T13:02:35;3.33;;;1.00;;
81619;SDS011;71028;53.410;6.710;2024-02-23T13:05:01;1.55;;;1.00;;
81619;SDS011;71028;53.410;6.710;2024-02-23T13:07:28;3.03;;;1.15;;
81619;SDS011;71028;53.410;6.710;2024-02-23T13:09:54;5.30;;;1.20;;
81619;SDS011;71028;53.410;6.710;2024-02-23T13:12:20;3.92;;;1.65;;
81619;SDS011;71028;53.410;6.710;2024-02-23T13:14:46;1.85;;;1.20;;
81619;SDS011;71028;53.410;6.710;2024-02-23T13:17:12;3.92;;;1.67;;
81619;SDS011;71028;53.410;6.710;2024-02-23T13:19:38;3.80;;;1.33;;
81619;SDS011;71028;53.410;6.710;2024-02-23T13:22:04;4.25;;;1.40;;
81619;SDS011;71028;53.410;6.710;2024-02-23T13:24:30;1.95;;;0.93;;
81619;SDS011;71028;53.410;6.710;2024-02-23T13:26:57;6.35;;;1.58;;
81619;SDS011;71028;53.410;6.710;2024-02-23T13:29:23;2.30;;;1.30;;
81619;SDS011;71028;53.410;6.710;2024-02-23T13:31:49;8.38;;;1.70;;
81619;SDS011;71028;53.410;6.710;2024-02-23T13:34:15;3.30;;;1.33;;
81619;SDS011;71028;53.410;6.710;2024-02-23T13:36:42;3.38;;;0.88;;
81619;SDS011;71028;53.410;6.710;2024-02-23T13:39:08;8.23;;;1.80;;
81619;SDS011;71028;53.410;6.710;2024-02-23T13:41:34;2.10;;;1.15;;
81619;SDS011;71028;53.410;6.710;2024-02-23T13:44:00;2.42;;;1.13;;
81619;SDS011;71028;53.410;6.710;2024-02-23T13:46:26;3.92;;;1.73;;
81619;SDS011;71028;53.410;6.710;2024-02-23T13:49:01;2.92;;;1.20;;
81619;SDS011;71028;53.410;6.710;2024-02-23T13:51:28;2.35;;;0.95;;
81619;SDS011;71028;53.410;6.710;2024-02-23T13:53:54;1.60;;;1.25;;
81619;SDS011;71028;53.410;6.710;2024-02-23T13:56:20;3.25;;;1.00;;
81619;SDS011;71028;53.410;6.710;2024-02-23T13:58:46;4.32;;;1.10;;
81619;SDS011;71028;53.410;6.710;2024-02-23T14:01:14;2.45;;;1.20;;
81619;SDS011;71028;53.410;6.710;2024-02-23T14:03:40;4.40;;;1.48;;
81619;SDS011;71028;53.410;6.710;2024-02-23T14:06:06;4.60;;;1.23;;
81619;SDS011;71028;53.410;6.710;2024-02-23T14:08:32;3.63;;;1.45;;
81619;SDS011;71028;53.410;6.710;2024-02-23T14:10:59;1.90;;;1.55;;
81619;SDS011;71028;53.410;6.710;2024-02-23T14:13:25;3.53;;;1.48;;
81619;SDS011;71028;53.410;6.710;2024-02-23T14:15:51;6.82;;;1.70;;
81619;SDS011;71028;53.410;6.710;2024-02-23T14:18:18;3.17;;;1.33;;
81619;SDS011;71028;53.410;6.710;2024-02-23T14:20:44;5.55;;;1.40;;
81619;SDS011;71028;53.410;6.710;2024-02-23T14:23:10;3.72;;;1.20;;
81619;SDS011;71028;53.410;6.710;2024-02-23T14:25:36;3.53;;;1.25;;
81619;SDS011;71028;53.410;6.710;2024-02-23T14:28:03;2.78;;;1.60;;
81619;SDS011;71028;53.410;6.710;2024-02-23T14:30:29;3.90;;;1.50;;
81619;SDS011;71028;53.410;6.710;2024-02-23T14:32:55;5.53;;;1.60;;
81619;SDS011;71028;53.410;6.710;2024-02-23T14:35:21;1.70;;;1.05;;
81619;SDS011;71028;53.410;6.710;2024-02-23T14:37:47;2.08;;;0.80;;
81619;SDS011;71028;53.410;6.710;2024-02-23T14:40:13;2.17;;;0.90;;
81619;SDS011;71028;53.410;6.710;2024-02-23T14:42:40;3.28;;;0.77;;
81619;SDS011;71028;53.410;6.710;2024-02-23T14:45:06;3.20;;;0.80;;